TimeEST,TemperatureF,Dew PointF,Humidity,Sea Level PressureIn,VisibilityMPH,Wind Direction,Wind SpeedMPH,Gust SpeedMPH,PrecipitationIn,Events,Conditions,WindDirDegrees,DateUTC
12:51 AM,39.0,37.9,96,29.46,-9999.0,SW,6.9,-,N/A,,Unknown,220,2013-01-12 05:51:00
1:51 AM,39.0,37.9,96,29.45,-9999.0,SW,9.2,-,N/A,,Unknown,230,2013-01-12 06:51:00
2:51 AM,39.0,37.9,96,29.44,-9999.0,SW,8.1,-,N/A,,Unknown,220,2013-01-12 07:51:00
3:51 AM,41.0,39.0,93,29.42,-9999.0,SSW,9.2,-,N/A,,Unknown,210,2013-01-12 08:51:00
4:51 AM,41.0,39.0,93,29.38,-9999.0,SSW,10.4,-,N/A,,Unknown,210,2013-01-12 09:51:00
5:51 AM,42.1,39.9,92,29.37,-9999.0,SW,8.1,-,N/A,,Unknown,230,2013-01-12 10:51:00
6:51 AM,42.1,39.9,92,29.35,-9999.0,SSW,6.9,-,N/A,,Unknown,210,2013-01-12 11:51:00
7:51 AM,42.1,39.9,92,29.35,-9999.0,Variable,4.6,-,N/A,,Unknown,0,2013-01-12 12:51:00
8:51 AM,41.0,39.9,96,29.38,-9999.0,Variable,3.5,-,N/A,,Unknown,0,2013-01-12 13:51:00
9:51 AM,41.0,36.0,82,29.42,-9999.0,Variable,6.9,19.6,N/A,,Unknown,0,2013-01-12 14:51:00
10:51 AM,39.9,34.0,79,29.45,-9999.0,NW,8.1,24.2,N/A,,Unknown,310,2013-01-12 15:51:00
11:51 AM,37.9,30.9,76,29.50,-9999.0,NW,11.5,26.5,N/A,,Unknown,320,2013-01-12 16:51:00
12:51 PM,34.0,27.0,75,29.55,-9999.0,WNW,12.7,38.0,N/A,,Unknown,300,2013-01-12 17:51:00
1:51 PM,30.9,25.0,79,29.60,-9999.0,WNW,13.8,25.3,N/A,,Unknown,300,2013-01-12 18:51:00
4:51 PM,27.0,21.0,78,29.78,-9999.0,WNW,9.2,25.3,N/A,,Unknown,300,2013-01-12 21:51:00
5:51 PM,27.0,21.0,78,29.82,-9999.0,NW,8.1,25.3,0.01,,Unknown,320,2013-01-12 22:51:00
6:51 PM,26.1,19.0,75,29.83,-9999.0,NNW,12.7,19.6,N/A,,Unknown,330,2013-01-12 23:51:00
7:51 PM,25.0,17.1,72,29.88,-9999.0,NW,9.2,25.3,N/A,,Unknown,310,2013-01-13 00:51:00
8:51 PM,25.0,16.0,69,29.88,-9999.0,WNW,10.4,21.9,N/A,,Unknown,300,2013-01-13 01:51:00
9:51 PM,23.0,17.1,78,29.90,-9999.0,NW,10.4,-,N/A,,Unknown,320,2013-01-13 02:51:00
10:51 PM,21.9,19.0,89,29.93,-9999.0,NNW,4.6,-,0.01,,Unknown,330,2013-01-13 03:51:00
11:51 PM,21.0,17.1,85,29.94,-9999.0,Variable,3.5,-,0.02,,Unknown,0,2013-01-13 04:51:00